Newbury, Massachusetts
Current Conditions -  °F | °C
As of 12:53 AM on Sunday 23 Nov 2014 (Local Time) from KBVY Reporting Station
Clear Clear  
Wind Chill: 32°   Ceiling: Unl
Heat Index: 41°   Visibility: 10mi
Dew Point: 21°   Wind: 17mph
Humidity: 45%   Direction: 220°SW
Pressure: 30.03"   Gusts: NA
Location:  42.79°N, 70.83°W
Report Text: KBVY 230553Z AUTO 22015KT 10SM CLR 05/M06 A3003 RMK AO2 SLP166 T00501061 10056 20039 58004
Loading
Personal Weather Stations






























Interactive Weather Map New forecast layout! Learn more

10-Day Weather Forecast

Advertisements
Track Severe Weather on mobile